Aérodrome :
LOGIN :

S'inscrire | Disclaimer

   EN    FR    IT 

 










Légende :    VFR   VFR Marginal   IFR   IFR Intensif   IFR Très Intensif
Visi : 
Plafond : 
>= 8 km
>= 3000ft
5 à 8 km
1000 à 3000 ft
1500m à 5 km
500 à 1000 ft
800 à 1500m
200 à 500 ft
< 800m
< 200 ft
Symboles :   Orages  Brouillard  Fortes neiges  Fortes précipitations  Vent > 20 kt
SIGMETs :   Divers  Orages  Givrage  Turbulence  Onde Orograph.  Cendres Volcan.







- Altitude de l'aérodrome : 935 ft


EBFS - Florennes

DERNIER METAR :
  • 011725Z 18011KT 6000 -DZ FEW006 SCT009 BKN012 05/04 Q0999 GRN

METARs EXPIRÉS :
  • 011655Z 18012KT 6000 -DZ FEW006 SCT009 BKN012 05/04 Q1000 GRN
  • 011625Z 18010KT 8000 FEW006 SCT009 BKN014 05/04 Q1000 GRN GRN BECMG YLO
  • 011555Z 18011KT 8000 FEW005 SCT008 BKN014 05/04 Q1001 GRN GRN BECMG YLO
  • 011525Z 19005KT 7000 FEW005 SCT007 BKN014 05/04 Q1001 GRN GRN BECMG YLO
  • 011455Z 20009KT 7000 FEW007 SCT010 BKN013 05/04 Q1002 GRN GRN BECMG YLO

TAF TAF EBFS
Valide du 01 à 13h jusqu'au 01 à 22h UTC


011148Z 0113/0122 24014G25KT 9999 FEW010 SCT015 BKN025
TEMPO 0113/0116 21012G22KT 4000 RA SHRA SCT010 BKN015
BECMG 0116/0119 18012KT 3000 RA SCT004 BKN006
Pas de NOTAMs connus pour ce terrain.



MET'MAP, la Météo Aéronautique d'un coup d'oeil ! - Copyright ORBIFLY Décembre 2007 - Disclaimer

ORBIFLY MET'MAP TEAM :

Programmation & Développement : Alexandra Zaïnal
Conception & Développement : Baudouin d'Aumeries
Co-Programmation & Développement : Marc-Olivier Méhu
Soutien technique & logistique : Manuel Goepfert

Contact : metmap@orbifly.com




SOURCES & CREDITS :

   NOAA